Photometre #541[Polarized_P] IASBS AOT

File : 20200925_541.hum

25/09/2020,03:21:43,TEMP=14.9,BA=5.28,STAT.A=Abs.,ExtBa=10.67
25/09/2020,03:24:55,TEMP=15.1,BA=5.28,STAT.A=Abs.,ExtBa=10.60
25/09/2020,03:28:40,TEMP=15.4,BA=5.28,STAT.A=Abs.,ExtBa=10.58
25/09/2020,03:33:08,TEMP=15.5,BA=5.08,STAT.A=Abs.,ExtBa=10.57
25/09/2020,03:38:30,TEMP=15.7,BA=5.08,STAT.A=Abs.,ExtBa=10.57
25/09/2020,03:45:06,TEMP=16.1,BA=5.20,STAT.A=Abs.,ExtBa=10.59
25/09/2020,03:53:27,TEMP=16.9,BA=5.36,STAT.B=Abs.,ExtBa=10.61
25/09/2020,04:00:15,TEMP=17.6,BA=5.08,STAT.A=Abs.,ExtBa=10.37
25/09/2020,04:01:59,TEMP=17.9,BA=5.08,STAT.A=Abs.,ExtBa=10.38
25/09/2020,04:06:56,TEMP=17.9,BA=5.08,STAT.A=Abs.,ExtBa=10.51
25/09/2020,04:12:38,TEMP=18.5,BA=5.36,STAT.A=Abs.,ExtBa=10.56
25/09/2020,04:19:11,TEMP=19.1,BA=5.36,STAT.C=Abs.,ExtBa=10.62
25/09/2020,04:32:05,TEMP=21.1,BA=5.08,STAT.A=Abs.,ExtBa=10.34
25/09/2020,04:35:42,TEMP=20.8,BA=5.08,STAT.A=Abs.,ExtBa=10.44
25/09/2020,04:46:21,TEMP=21.3,BA=5.32,STAT.A=Abs.,ExtBa=10.57
25/09/2020,04:59:23,TEMP=21.8,BA=5.36,STAT.A=Abs.,ExtBa=10.67
25/09/2020,05:15:44,TEMP=22.7,BA=5.36,STAT.B=Abs.,ExtBa=10.74
25/09/2020,05:22:58,TEMP=23.1,BA=5.12,STAT.D=Abs.,ExtBa=10.53
25/09/2020,05:37:59,TEMP=23.5,BA=5.32,STAT.F
25/09/2020,05:52:58,TEMP=23.6,BA=5.12,STAT.D=Abs.,ExtBa=10.49
25/09/2020,06:07:58,TEMP=23.6,BA=5.28,STAT.D=Abs.,ExtBa=10.68
25/09/2020,06:22:58,TEMP=24.6,BA=5.32,STAT.D=Abs.,ExtBa=10.76
25/09/2020,06:38:00,TEMP=25.1,BA=5.32,STAT.F
25/09/2020,06:52:58,TEMP=26.1,BA=5.12,STAT.D=Abs.,ExtBa=10.65
25/09/2020,07:07:58,TEMP=26.8,BA=5.28,STAT.D=Abs.,ExtBa=10.79
25/09/2020,07:22:58,TEMP=27.8,BA=5.28,STAT.D=Abs.,ExtBa=10.86
25/09/2020,07:38:00,TEMP=29.1,BA=5.28,STAT.F
25/09/2020,07:52:58,TEMP=30.5,BA=5.12,STAT.D=Abs.,ExtBa=10.63
25/09/2020,08:07:58,TEMP=30.4,BA=5.28,STAT.D=Abs.,ExtBa=10.72
25/09/2020,08:22:58,TEMP=31.1,BA=5.28,STAT.D=Abs.,ExtBa=10.82
25/09/2020,08:38:00,TEMP=31.1,BA=5.28,STAT.F
25/09/2020,08:52:58,TEMP=31.6,BA=5.28,STAT.D=Abs.,ExtBa=10.74
25/09/2020,09:07:56,TEMP=32.2,BA=5.28,STAT.D=Abs.,ExtBa=10.77
25/09/2020,09:22:56,TEMP=32.3,BA=5.28,STAT.D=Abs.,ExtBa=10.94
25/09/2020,09:37:59,TEMP=31.7,BA=5.28,STAT.F
25/09/2020,09:52:58,TEMP=31.9,BA=5.16,STAT.D=Abs.,ExtBa=10.88
25/09/2020,10:07:58,TEMP=31.4,BA=5.28,STAT.D=Abs.,ExtBa=11.00
25/09/2020,10:22:58,TEMP=31.3,BA=5.28,STAT.D=Abs.,ExtBa=11.13
25/09/2020,10:38:00,TEMP=31.9,BA=5.28,STAT.F
25/09/2020,10:52:58,TEMP=31.9,BA=5.16,STAT.D=Abs.,ExtBa=11.05
25/09/2020,11:07:58,TEMP=31.3,BA=5.28,STAT.D=Abs.,ExtBa=11.13
25/09/2020,11:22:57,TEMP=30.9,BA=5.32,STAT.D=Abs.,ExtBa=11.19
25/09/2020,11:37:58,TEMP=31.0,BA=5.32,STAT.F
25/09/2020,11:52:57,TEMP=31.0,BA=5.16,STAT.D=Abs.,ExtBa=11.08
25/09/2020,12:00:14,TEMP=30.9,BA=5.20,STAT.B=Abs.,ExtBa=11.13
25/09/2020,12:16:35,TEMP=30.5,BA=5.28,STAT.A=Abs.,ExtBa=11.09
25/09/2020,12:29:37,TEMP=30.1,BA=5.32,STAT.A=Abs.,ExtBa=11.15
25/09/2020,12:40:16,TEMP=30.4,BA=5.24,STAT.A=Abs.,ExtBa=11.18
25/09/2020,12:49:12,TEMP=30.3,BA=5.24,STAT.A=Abs.,ExtBa=11.19
25/09/2020,12:56:47,TEMP=30.3,BA=5.20,STAT.C=Abs.,ExtBa=11.18
25/09/2020,13:09:31,TEMP=30.3,BA=5.20,STAT.A=Abs.,ExtBa=10.96
25/09/2020,13:11:15,TEMP=30.0,BA=5.20,STAT.A=Abs.,ExtBa=10.96
25/09/2020,13:14:03,TEMP=29.5,BA=5.20,STAT.A=Abs.,ExtBa=10.97
25/09/2020,13:18:31,TEMP=29.2,BA=5.20,STAT.A=Abs.,ExtBa=10.98
25/09/2020,13:22:29,TEMP=29.1,BA=5.28,STAT.B=Abs.,ExtBa=10.98
25/09/2020,13:30:50,TEMP=28.7,BA=5.28,STAT.A=Abs.,ExtBa=10.81
25/09/2020,13:37:26,TEMP=28.4,BA=5.28,STAT.A=Abs.,ExtBa=10.84
25/09/2020,13:42:48,TEMP=28.3,BA=5.28,STAT.A=Abs.,ExtBa=10.82
25/09/2020,13:47:16,TEMP=28.3,BA=5.28,STAT.A=Abs.,ExtBa=10.80
25/09/2020,13:51:01,TEMP=28.1,BA=5.32,STAT.A=Abs.,ExtBa=10.77
25/09/2020,13:54:13,TEMP=28.0,BA=5.32,STAT.A=Abs.,ExtBa=10.74